Overview Statistics Trail Chart Weather Telemetry Raw packets
 

This is the latest recevied weather packets stored in our database for station/object KY0TEQ-13. If no packets are shown the sender has not sent any weather packets the latest 10 day(s).

<< 85 86 87 88 89 90 91 >>
Time Temp. Humidity Pressure Rain* Wind** Luminosity Snow
1788064222 16.67° C 68% 1310.8 hPa 0 mm - 0 W/m² -
1788063920 17.22° C 67% 1310.6 hPa 0 mm - 0 W/m² -
1788063615 17.22° C 67% 1310.6 hPa 0 mm - 0 W/m² -
1788063314 17.22° C 67% 1310.4 hPa 0 mm - 0 W/m² -
1788063014 17.78° C 63% 1310.8 hPa 0 mm - 0 W/m² -
1788062723 18.33° C 62% 1310.7 hPa 0 mm - 0 W/m² -
1788062405 18.33° C 62% 1310.7 hPa 0 mm - 0 W/m² -
1788062103 18.33° C 62% 1310.7 hPa 0 mm - 0 W/m² -
1788061798 18.33° C 61% 1310.7 hPa 0 mm - 0 W/m² -
1788061494 18.33° C 60% 1310.8 hPa 0 mm - 0 W/m² -
1788061193 18.33° C 60% 1311 hPa 0 mm - 0 W/m² -
1788060889 18.33° C 60% 1310.6 hPa 0 mm - 0 W/m² -
1788060584 18.33° C 61% 1310.6 hPa 0 mm - 0 W/m² -
1788060283 18.33° C 62% 1311.2 hPa 0 mm - 0 W/m² -
1788059978 18.33° C 63% 1311.2 hPa 0 mm - 0 W/m² -
1788059674 18.33° C 60% 1311 hPa 0 mm - 0 W/m² -
1788059369 19.44° C 56% 1311.1 hPa 0 mm - 0 W/m² -
1788059065 20° C 49% 1310.7 hPa 0 mm - 0 W/m² -
1788058764 20.56° C 43% 1311.1 hPa 0 mm - 0 W/m² -
1788058464 21.11° C 40% 1310.7 hPa 0 mm - 0 W/m² -
1788058163 21.11° C 39% 1310.4 hPa 0 mm - 0 W/m² -
1788057859 21.11° C 39% 1310.2 hPa 0 mm - 0 W/m² -
1788057556 21.11° C 39% 1310 hPa 0 mm - 0 W/m² -
1788057255 21.11° C 38% 1309.7 hPa 0 mm - 0 W/m² -
1788056954 21.11° C 39% 1309.9 hPa 0 mm - 0 W/m² -

* Rain latest hour (hover to see other rain measurements)
** Current wind speed in m/s (hover to see current wind gust speed)